Time;durP1;ratioP1;P1;durP2;ratioP2;P2;SDS_P1;SDS_P2;PMS_P1;PMS_P2;Temp;Humidity;BMP_temperature;BMP_pressure;BME280_temperature;BME280_humidity;BME280_pressure;Samples;Min_cycle;Max_cycle;Signal;HPM_P1;HPM_P2
2022/04/14 00:02:45;;;;;;;9.83;5.53;;;12.30;99.90;;;;;;5032246;28;20789;-77
2022/04/14 00:05:31;;;;;;;7.53;4.50;;;12.20;99.90;;;;;;5030665;28;20889;-77
2022/04/14 00:08:16;;;;;;;15.10;5.17;;;12.20;99.90;;;;;;5034566;28;20499;-77
2022/04/14 00:11:04;;;;;;;11.57;4.63;;;12.20;99.90;;;;;;5026439;28;20499;-77
2022/04/14 00:13:50;;;;;;;11.53;4.30;;;12.30;99.90;;;;;;5032190;28;20469;-77
2022/04/14 00:16:35;;;;;;;13.37;4.40;;;12.30;99.90;;;;;;5029655;28;20415;-77
2022/04/14 00:19:21;;;;;;;10.00;4.63;;;12.30;99.90;;;;;;5028880;28;20615;-76
2022/04/14 00:22:07;;;;;;;7.43;4.40;;;12.20;99.90;;;;;;5030162;28;20952;-76
2022/04/14 00:24:53;;;;;;;13.80;4.40;;;12.10;99.90;;;;;;5030160;28;20450;-77
2022/04/14 00:27:40;;;;;;;7.67;4.27;;;12.00;99.90;;;;;;5029852;28;20425;-75
2022/04/14 00:30:26;;;;;;;9.83;4.50;;;11.80;99.90;;;;;;5028337;28;20481;-77
2022/04/14 00:33:12;;;;;;;6.70;4.67;;;11.80;99.90;;;;;;5028227;28;20462;-77
2022/04/14 00:35:57;;;;;;;7.20;4.53;;;11.90;99.90;;;;;;5031791;28;20802;-76
2022/04/14 00:38:43;;;;;;;11.53;4.30;;;12.00;99.90;;;;;;5027881;28;20414;-76
2022/04/14 00:41:28;;;;;;;7.83;4.97;;;11.90;99.90;;;;;;5030106;28;22112;-77
2022/04/14 00:44:16;;;;;;;6.47;4.40;;;11.80;99.90;;;;;;5031764;28;20812;-77
2022/04/14 00:47:01;;;;;;;16.13;4.50;;;11.80;99.90;;;;;;5028204;28;20996;-76
2022/04/14 00:49:47;;;;;;;6.90;5.13;;;11.70;99.90;;;;;;5024099;28;20595;-77
2022/04/14 00:52:33;;;;;;;8.10;4.77;;;11.50;99.90;;;;;;5033413;28;20448;-77
2022/04/14 00:55:18;;;;;;;12.83;4.80;;;11.40;99.90;;;;;;5028044;28;20444;-77
2022/04/14 00:58:04;;;;;;;10.53;5.40;;;11.30;99.90;;;;;;5025078;28;20448;-77
2022/04/14 01:00:52;;;;;;;5.80;4.50;;;11.20;99.90;;;;;;5027425;28;20459;-77
2022/04/14 01:03:38;;;;;;;7.93;5.10;;;11.40;99.90;;;;;;5030677;28;20408;-77
2022/04/14 01:06:24;;;;;;;9.70;4.60;;;11.50;99.90;;;;;;5029275;28;20422;-77
2022/04/14 01:09:20;;;;;;;8.70;5.10;;;11.50;99.90;;;;;;5021317;28;20470;-77
2022/04/14 01:12:07;;;;;;;10.87;6.13;;;11.60;99.90;;;;;;5033266;28;20940;-77
2022/04/14 01:14:53;;;;;;;6.50;4.43;;;11.70;99.90;;;;;;5028888;28;20431;-77
2022/04/14 01:17:41;;;;;;;8.57;5.00;;;11.70;99.90;;;;;;5028349;28;20414;-77
2022/04/14 01:20:26;;;;;;;9.67;5.17;;;11.80;99.90;;;;;;5029078;28;20449;-76
2022/04/14 01:23:14;;;;;;;8.23;4.67;;;11.70;99.90;;;;;;5026690;28;20451;-76
2022/04/14 01:26:01;;;;;;;7.90;4.40;;;11.80;99.90;;;;;;5027547;28;20434;-76
2022/04/14 01:28:46;;;;;;;9.27;4.70;;;11.70;99.90;;;;;;5024002;28;20512;-77
2022/04/14 01:31:32;;;;;;;11.63;5.57;;;11.60;99.90;;;;;;5030095;28;20528;-77
2022/04/14 01:34:18;;;;;;;6.23;4.10;;;11.40;99.90;;;;;;5028791;28;20560;-74
2022/04/14 01:37:04;;;;;;;12.20;5.20;;;11.40;99.90;;;;;;5031045;28;20503;-76
2022/04/14 01:39:50;;;;;;;8.40;4.90;;;11.40;99.90;;;;;;5026095;28;20472;-77
2022/04/14 01:42:37;;;;;;;5.80;4.23;;;11.40;99.90;;;;;;5032237;28;20459;-77
2022/04/14 01:45:23;;;;;;;9.67;4.60;;;11.30;99.90;;;;;;5028873;28;20460;-77
2022/04/14 01:48:09;;;;;;;9.20;5.40;;;11.20;99.90;;;;;;5031683;28;20443;-77
2022/04/14 01:50:54;;;;;;;9.73;4.63;;;11.10;99.90;;;;;;5030384;28;20828;-76
2022/04/14 01:53:40;;;;;;;8.10;4.33;;;11.10;99.90;;;;;;5030325;28;20438;-77
2022/04/14 01:56:26;;;;;;;10.70;4.40;;;11.20;99.90;;;;;;5026008;28;20809;-77
2022/04/14 01:59:13;;;;;;;13.30;4.00;;;11.10;99.90;;;;;;5026762;28;20819;-77
2022/04/14 02:01:59;;;;;;;15.83;5.23;;;11.00;99.90;;;;;;5041953;28;20484;-77
2022/04/14 02:04:44;;;;;;;12.77;3.77;;;11.10;99.90;;;;;;5051214;28;20418;-76
2022/04/14 02:07:30;;;;;;;11.33;5.43;;;11.10;99.90;;;;;;5027163;28;20714;-77
2022/04/14 02:10:16;;;;;;;7.00;3.90;;;11.20;99.90;;;;;;5025274;28;20459;-77
2022/04/14 02:13:01;;;;;;;7.83;4.50;;;11.20;99.90;;;;;;5025796;28;20422;-75
2022/04/14 02:15:48;;;;;;;8.07;4.00;;;11.10;99.90;;;;;;5028020;28;20511;-77
2022/04/14 02:18:34;;;;;;;6.43;3.47;;;11.20;99.90;;;;;;5023162;28;20453;-77
2022/04/14 02:21:19;;;;;;;7.83;4.50;;;11.30;99.90;;;;;;5026645;28;20426;-77
2022/04/14 02:24:06;;;;;;;13.93;4.63;;;11.20;99.90;;;;;;5027661;28;20507;-77
2022/04/14 02:26:52;;;;;;;7.60;4.90;;;11.30;99.90;;;;;;5025610;28;20460;-77
2022/04/14 02:29:38;;;;;;;6.10;4.17;;;11.30;99.90;;;;;;5026613;28;20489;-77
2022/04/14 02:32:24;;;;;;;11.50;5.20;;;11.30;99.90;;;;;;5028717;28;20431;-76
2022/04/14 02:35:10;;;;;;;8.77;5.60;;;11.40;99.90;;;;;;5025675;28;20828;-77
2022/04/14 02:37:57;;;;;;;7.63;4.07;;;11.40;99.90;;;;;;5025884;28;20939;-77
2022/04/14 02:40:42;;;;;;;7.73;4.47;;;11.40;99.90;;;;;;5027779;28;20461;-77
2022/04/14 02:43:28;;;;;;;8.67;3.90;;;11.40;99.90;;;;;;5038867;22;20998;-86
2022/04/14 02:46:14;;;;;;;8.60;4.43;;;11.30;99.90;;;;;;5024008;28;20425;-87
2022/04/14 02:49:01;;;;;;;9.17;4.50;;;11.20;99.90;;;;;;5034288;28;20451;-86
2022/04/14 02:51:47;;;;;;;12.27;4.83;;;11.20;99.90;;;;;;5032035;28;20441;-86
2022/04/14 02:54:37;;;;;;;7.10;4.33;;;11.10;99.90;;;;;;5032588;28;20454;-85
2022/04/14 02:57:23;;;;;;;5.40;3.90;;;11.00;99.90;;;;;;5028987;28;20439;-86
2022/04/14 03:00:10;;;;;;;7.40;4.60;;;11.00;99.90;;;;;;5027561;28;20470;-85
2022/04/14 03:02:56;;;;;;;7.13;4.10;;;11.00;99.90;;;;;;5033538;28;20466;-86
2022/04/14 03:05:43;;;;;;;10.00;4.60;;;10.90;99.90;;;;;;5031945;28;20420;-85
2022/04/14 03:08:29;;;;;;;8.47;6.43;;;10.80;99.90;;;;;;5032044;28;20467;-85
2022/04/14 03:11:15;;;;;;;5.83;4.40;;;10.80;99.90;;;;;;5030342;28;20449;-85
2022/04/14 03:14:01;;;;;;;7.57;5.07;;;10.90;99.90;;;;;;5028624;28;20596;-85
2022/04/14 03:16:47;;;;;;;8.67;4.60;;;10.80;99.90;;;;;;5028124;28;20479;-86
2022/04/14 03:19:33;;;;;;;9.30;4.50;;;10.70;99.90;;;;;;5038823;28;20714;-86
2022/04/14 03:22:20;;;;;;;6.03;4.20;;;10.80;99.90;;;;;;5030259;28;20448;-86
2022/04/14 03:25:07;;;;;;;7.97;5.97;;;10.80;99.90;;;;;;5028959;28;20491;-85
2022/04/14 03:27:53;;;;;;;7.70;4.20;;;10.80;99.90;;;;;;5030550;28;20501;-85
2022/04/14 03:30:38;;;;;;;12.17;4.90;;;11.00;99.90;;;;;;5030977;28;20534;-86
2022/04/14 03:33:24;;;;;;;5.27;3.83;;;11.10;99.90;;;;;;5034658;28;20474;-85
2022/04/14 03:36:10;;;;;;;8.50;4.70;;;10.80;99.90;;;;;;5025441;28;20894;-85
2022/04/14 03:38:57;;;;;;;8.00;4.40;;;10.80;99.90;;;;;;5032439;28;21005;-86
2022/04/14 03:41:43;;;;;;;6.90;4.00;;;10.70;99.90;;;;;;5044675;28;20724;-86
2022/04/14 03:44:28;;;;;;;7.30;4.33;;;10.70;99.90;;;;;;5035610;28;21042;-86
2022/04/14 03:47:14;;;;;;;7.30;3.90;;;10.70;99.90;;;;;;5029765;28;20418;-85
2022/04/14 03:50:00;;;;;;;9.10;3.80;;;10.70;99.90;;;;;;5024678;28;20602;-86
2022/04/14 03:52:45;;;;;;;7.90;4.13;;;10.80;99.90;;;;;;5032127;28;20487;-86
2022/04/14 03:55:33;;;;;;;10.53;4.40;;;10.60;99.90;;;;;;5029329;28;20486;-86
2022/04/14 03:58:19;;;;;;;8.47;4.03;;;10.60;99.90;;;;;;5032361;28;20439;-86
2022/04/14 04:01:04;;;;;;;8.53;3.83;;;10.60;99.90;;;;;;5033005;28;20390;-86
2022/04/14 04:03:50;;;;;;;6.17;3.80;;;10.40;99.90;;;;;;5034469;28;20427;-86
2022/04/14 04:06:35;;;;;;;9.03;4.83;;;10.40;99.90;;;;;;5027156;28;20877;-85
2022/04/14 04:09:21;;;;;;;9.33;3.60;;;10.50;99.90;;;;;;5031015;28;20403;-86
2022/04/14 04:12:10;;;;;;;4.97;3.90;;;10.60;99.90;;;;;;5032069;28;20440;-85
2022/04/14 04:14:55;;;;;;;12.90;3.90;;;10.70;99.90;;;;;;5029527;28;20570;-85
2022/04/14 04:17:41;;;;;;;6.40;4.07;;;10.70;99.90;;;;;;5033110;28;20464;-86
2022/04/14 04:20:27;;;;;;;7.07;4.60;;;10.70;99.90;;;;;;5032864;28;20475;-86
2022/04/14 04:23:12;;;;;;;9.93;3.87;;;10.50;99.90;;;;;;5026540;28;20481;-86
2022/04/14 04:25:58;;;;;;;12.70;4.70;;;10.50;99.90;;;;;;5031373;28;20561;-85
2022/04/14 04:28:45;;;;;;;6.33;4.40;;;10.40;99.90;;;;;;5032055;28;20512;-86
2022/04/14 04:31:31;;;;;;;9.80;4.37;;;10.30;99.90;;;;;;5033049;28;20467;-86
2022/04/14 04:34:17;;;;;;;6.00;4.30;;;10.30;99.90;;;;;;5034663;28;20517;-86
2022/04/14 04:37:02;;;;;;;6.30;4.17;;;10.30;99.90;;;;;;5028280;28;20440;-86
2022/04/14 04:39:48;;;;;;;12.13;4.37;;;10.40;99.90;;;;;;5031178;28;20803;-86
2022/04/14 04:42:34;;;;;;;12.37;6.60;;;10.50;99.90;;;;;;5039674;28;20546;-86
2022/04/14 04:45:21;;;;;;;6.50;4.47;;;10.50;99.90;;;;;;5026279;28;20457;-86
2022/04/14 04:48:06;;;;;;;9.50;4.40;;;10.40;99.90;;;;;;5027137;28;20524;-86
2022/04/14 04:50:52;;;;;;;6.83;5.50;;;10.50;99.90;;;;;;5035190;28;20481;-85
2022/04/14 04:53:38;;;;;;;13.37;4.00;;;10.60;99.90;;;;;;5034141;28;20427;-85
2022/04/14 04:56:23;;;;;;;6.53;4.40;;;10.70;99.90;;;;;;5024322;28;20425;-86
2022/04/14 04:59:09;;;;;;;6.43;4.80;;;10.60;99.90;;;;;;5028271;28;20422;-86
2022/04/14 05:01:56;;;;;;;8.63;5.30;;;10.70;99.90;;;;;;5028851;28;20471;-86
2022/04/14 05:04:41;;;;;;;12.17;4.73;;;10.70;99.90;;;;;;5029322;28;20424;-86
2022/04/14 05:07:27;;;;;;;9.43;4.03;;;10.80;99.90;;;;;;5030071;28;20507;-86
2022/04/14 05:10:13;;;;;;;8.80;5.60;;;10.80;99.90;;;;;;5028460;28;20464;-86
2022/04/14 05:12:58;;;;;;;10.60;5.60;;;10.80;99.90;;;;;;5026609;28;20450;-85
2022/04/14 05:15:44;;;;;;;9.33;5.50;;;10.80;99.90;;;;;;5029564;28;20442;-85
2022/04/14 05:18:31;;;;;;;7.70;5.20;;;10.70;99.90;;;;;;5031917;28;20808;-85
2022/04/14 05:21:17;;;;;;;12.10;5.77;;;10.80;99.90;;;;;;5028420;28;20598;-85
2022/04/14 05:24:03;;;;;;;7.70;5.37;;;10.90;99.90;;;;;;5026702;28;21179;-86
2022/04/14 05:26:48;;;;;;;7.73;5.17;;;10.90;99.90;;;;;;5031453;28;20446;-86
2022/04/14 05:29:36;;;;;;;6.87;5.03;;;11.00;99.90;;;;;;5028888;28;20497;-86
2022/04/14 05:32:21;;;;;;;7.27;5.07;;;11.20;99.90;;;;;;5028163;28;20905;-86
2022/04/14 05:35:09;;;;;;;7.30;5.17;;;11.30;99.90;;;;;;5028576;28;20433;-86
2022/04/14 05:37:55;;;;;;;9.67;5.00;;;11.20;99.90;;;;;;5031784;28;20477;-86
2022/04/14 05:40:43;;;;;;;8.03;5.97;;;11.20;99.90;;;;;;5032603;28;20458;-86
2022/04/14 05:43:29;;;;;;;9.20;6.00;;;11.30;99.90;;;;;;5031429;28;20450;-86
2022/04/14 05:46:15;;;;;;;7.40;6.10;;;11.50;99.90;;;;;;5027940;28;20436;-86
2022/04/14 05:49:01;;;;;;;12.60;5.60;;;11.50;99.90;;;;;;5031162;28;21014;-85
2022/04/14 05:51:48;;;;;;;9.03;5.90;;;11.50;99.90;;;;;;5030434;28;20463;-86
2022/04/14 05:54:34;;;;;;;12.00;5.10;;;11.60;99.90;;;;;;5026402;28;20582;-86
2022/04/14 05:57:22;;;;;;;8.43;5.73;;;11.70;99.90;;;;;;5028155;28;20435;-86
2022/04/14 06:00:09;;;;;;;20.80;5.63;;;11.60;99.90;;;;;;5023984;28;20437;-85
2022/04/14 06:02:54;;;;;;;11.63;5.30;;;11.60;99.90;;;;;;5040614;28;20433;-86
2022/04/14 06:05:40;;;;;;;8.07;5.40;;;11.70;99.90;;;;;;5015578;28;20490;-85
2022/04/14 06:08:27;;;;;;;10.90;5.80;;;11.80;99.90;;;;;;5029539;28;20541;-85
2022/04/14 06:11:13;;;;;;;6.30;5.20;;;11.80;99.90;;;;;;5029669;28;20471;-85
2022/04/14 06:13:58;;;;;;;9.60;5.37;;;11.80;99.90;;;;;;5025947;28;20435;-85
2022/04/14 06:16:44;;;;;;;8.20;6.20;;;12.00;99.90;;;;;;5033299;28;20434;-86
2022/04/14 06:19:30;;;;;;;10.53;6.20;;;12.10;99.90;;;;;;5029587;28;20456;-86
2022/04/14 06:22:15;;;;;;;10.43;5.63;;;12.20;99.90;;;;;;5028251;28;20442;-86
2022/04/14 06:25:02;;;;;;;16.43;6.83;;;12.20;99.90;;;;;;5024280;28;20431;-86
2022/04/14 06:27:48;;;;;;;8.10;6.13;;;12.30;99.90;;;;;;5031309;28;20486;-86
2022/04/14 06:30:33;;;;;;;10.80;6.57;;;12.40;99.90;;;;;;5026877;28;20467;-86
2022/04/14 06:33:20;;;;;;;12.53;7.53;;;12.60;99.90;;;;;;5056866;22;21063;-69
2022/04/14 06:36:06;;;;;;;15.43;7.00;;;12.70;99.90;;;;;;5053565;28;20999;-72
2022/04/14 06:38:52;;;;;;;14.33;6.50;;;12.90;99.90;;;;;;5055236;28;20429;-72
2022/04/14 06:41:39;;;;;;;13.80;7.13;;;13.00;99.90;;;;;;5064112;28;21030;-72
2022/04/14 06:44:25;;;;;;;18.43;8.47;;;13.20;99.90;;;;;;5048160;28;20523;-72
2022/04/14 06:47:11;;;;;;;20.13;8.47;;;13.30;99.90;;;;;;5050883;28;20790;-72
2022/04/14 06:49:57;;;;;;;16.67;11.03;;;13.40;99.90;;;;;;5051205;28;20938;-71
2022/04/14 06:52:42;;;;;;;14.30;8.00;;;13.50;99.90;;;;;;5056431;28;20536;-72
2022/04/14 06:55:28;;;;;;;11.83;7.03;;;13.60;99.90;;;;;;5060183;28;20977;-71
2022/04/14 06:58:15;;;;;;;14.00;7.27;;;13.70;99.90;;;;;;5049912;28;20418;-72
2022/04/14 07:01:01;;;;;;;16.40;8.80;;;13.80;99.90;;;;;;5050672;28;20444;-72
2022/04/14 07:03:47;;;;;;;15.27;11.87;;;13.90;99.90;;;;;;5046624;28;20417;-71
2022/04/14 07:06:33;;;;;;;20.83;14.00;;;13.90;99.90;;;;;;5041864;28;20756;-70
2022/04/14 07:09:18;;;;;;;23.70;18.43;;;14.10;99.90;;;;;;5051783;28;20459;-70
2022/04/14 07:12:04;;;;;;;25.97;22.87;;;14.30;99.90;;;;;;5042445;28;20417;-70
2022/04/14 07:14:51;;;;;;;35.87;25.33;;;14.50;99.90;;;;;;5050655;28;20409;-71
2022/04/14 07:17:37;;;;;;;29.67;23.20;;;14.60;99.90;;;;;;5053699;28;20463;-70
2022/04/14 07:20:23;;;;;;;36.47;23.17;;;14.70;99.90;;;;;;5052007;28;20426;-70
2022/04/14 07:23:08;;;;;;;35.53;24.50;;;14.70;99.90;;;;;;5048465;28;20545;-70
2022/04/14 07:25:54;;;;;;;33.10;23.93;;;14.80;99.90;;;;;;5052200;28;20422;-70
2022/04/14 07:28:40;;;;;;;34.57;21.60;;;14.90;99.90;;;;;;5051239;28;20435;-70
2022/04/14 07:31:27;;;;;;;36.10;23.23;;;15.00;99.90;;;;;;5049010;28;20989;-70
2022/04/14 07:34:14;;;;;;;32.50;22.80;;;15.10;99.90;;;;;;5050723;28;20531;-70
2022/04/14 07:37:00;;;;;;;36.27;23.47;;;15.20;99.90;;;;;;5051725;28;20454;-72
2022/04/14 07:39:45;;;;;;;31.57;22.10;;;15.20;99.90;;;;;;5051805;28;20442;-70
2022/04/14 07:42:32;;;;;;;28.97;22.03;;;15.30;99.90;;;;;;5051357;28;20665;-70
2022/04/14 07:45:19;;;;;;;30.27;23.13;;;15.30;99.90;;;;;;5050104;28;20439;-70
2022/04/14 07:48:08;;;;;;;28.37;22.83;;;15.40;99.90;;;;;;5048037;28;20447;-72
2022/04/14 07:50:54;;;;;;;33.60;24.03;;;15.40;99.90;;;;;;5048031;28;20538;-71
2022/04/14 07:53:40;;;;;;;31.27;23.60;;;15.50;99.90;;;;;;5039110;28;20449;-71
2022/04/14 07:56:26;;;;;;;29.03;23.07;;;15.50;99.90;;;;;;5033694;28;20509;-71
2022/04/14 07:59:12;;;;;;;35.90;25.03;;;15.60;99.90;;;;;;5054729;28;20392;-71
2022/04/14 08:02:00;;;;;;;34.73;24.03;;;15.70;99.90;;;;;;5062214;28;20405;-71
2022/04/14 08:04:47;;;;;;;29.67;24.03;;;15.70;99.90;;;;;;5055777;28;20497;-72
2022/04/14 08:07:32;;;;;;;30.10;23.40;;;15.80;99.90;;;;;;5047424;28;20410;-72
2022/04/14 08:10:18;;;;;;;31.30;22.33;;;15.90;99.90;;;;;;5048252;28;20435;-71
2022/04/14 08:13:05;;;;;;;34.93;24.10;;;15.90;99.90;;;;;;5044415;28;20451;-72
2022/04/14 08:15:51;;;;;;;31.30;23.00;;;16.00;99.90;;;;;;5053328;28;20449;-72
2022/04/14 08:18:38;;;;;;;37.50;24.67;;;16.10;99.90;;;;;;5051453;28;21181;-71
2022/04/14 08:21:25;;;;;;;35.47;24.63;;;16.10;99.90;;;;;;5041951;28;20456;-69
2022/04/14 08:24:11;;;;;;;37.37;24.53;;;16.10;99.90;;;;;;5037164;28;20449;-69
2022/04/14 08:26:56;;;;;;;31.10;23.50;;;16.20;99.90;;;;;;5054653;28;20917;-70
2022/04/14 08:29:42;;;;;;;34.47;24.57;;;16.30;99.90;;;;;;5050055;28;20426;-69
2022/04/14 08:32:28;;;;;;;27.47;22.27;;;16.30;99.90;;;;;;5055533;28;21007;-70
2022/04/14 08:35:14;;;;;;;29.03;22.43;;;16.40;99.90;;;;;;5050269;28;20426;-70
2022/04/14 08:38:03;;;;;;;31.33;23.23;;;16.50;99.90;;;;;;5053242;28;20929;-69
2022/04/14 08:40:57;;;;;;;30.30;22.93;;;16.70;99.90;;;;;;5049208;28;20416;-70
2022/04/14 08:43:49;;;;;;;31.00;23.20;;;16.70;99.90;;;;;;5060605;22;20500;-76
2022/04/14 08:46:35;;;;;;;26.60;21.90;;;16.90;99.90;;;;;;5029569;28;20414;-76
2022/04/14 08:49:22;;;;;;;33.87;22.67;;;17.00;99.90;;;;;;5026262;28;20455;-76
2022/04/14 08:52:09;;;;;;;25.27;20.93;;;17.10;99.90;;;;;;5036276;28;20895;-77
2022/04/14 08:54:56;;;;;;;39.40;22.67;;;17.10;99.90;;;;;;5030266;28;20978;-77
2022/04/14 08:57:42;;;;;;;28.27;21.30;;;17.20;99.90;;;;;;5030588;28;20464;-77
2022/04/14 09:00:28;;;;;;;31.60;22.73;;;17.40;99.90;;;;;;5025889;28;21052;-77
2022/04/14 09:03:14;;;;;;;29.87;21.47;;;17.70;99.90;;;;;;5032982;28;20988;-77
2022/04/14 09:06:00;;;;;;;26.60;20.03;;;17.80;99.90;;;;;;5025183;28;20571;-77
2022/04/14 09:08:48;;;;;;;27.30;22.37;;;17.80;99.90;;;;;;5024513;28;20469;-77
2022/04/14 09:11:35;;;;;;;29.87;22.57;;;17.80;99.90;;;;;;5032279;28;20419;-78
2022/04/14 09:14:21;;;;;;;32.97;22.70;;;17.90;99.90;;;;;;5031326;28;20438;-77
2022/04/14 09:17:07;;;;;;;26.10;21.27;;;17.90;99.90;;;;;;5029157;28;20476;-76
2022/04/14 09:19:53;;;;;;;27.23;20.70;;;17.90;99.90;;;;;;5026016;28;20476;-77
2022/04/14 09:22:39;;;;;;;30.13;22.00;;;17.90;99.90;;;;;;5030724;28;20440;-77
2022/04/14 09:25:25;;;;;;;32.13;23.10;;;17.80;99.90;;;;;;5029076;28;20588;-77
2022/04/14 09:28:13;;;;;;;32.23;23.10;;;17.70;99.90;;;;;;5027550;28;20423;-77
2022/04/14 09:31:01;;;;;;;36.83;22.97;;;17.70;99.90;;;;;;5033738;28;20407;-77
2022/04/14 09:33:48;;;;;;;38.47;22.63;;;17.60;99.90;;;;;;5026715;28;20541;-76
2022/04/14 09:36:33;;;;;;;27.23;22.63;;;17.70;99.90;;;;;;5029126;28;20464;-76
2022/04/14 09:39:19;;;;;;;30.90;22.77;;;17.70;99.90;;;;;;5030716;28;20430;-77
2022/04/14 09:42:13;;;;;;;31.57;23.80;;;17.60;99.90;;;;;;5036609;28;20571;-77
2022/04/14 09:45:20;;;;;;;29.93;22.87;;;17.70;99.90;;;;;;5022781;28;20446;-76
2022/04/14 09:48:09;;;;;;;29.60;22.50;;;17.70;99.90;;;;;;5019387;28;20602;-75
2022/04/14 09:50:54;;;;;;;29.67;23.90;;;17.70;99.90;;;;;;5028802;28;20522;-76
2022/04/14 09:53:40;;;;;;;22.07;19.10;;;17.70;99.90;;;;;;5030921;28;20455;-75
2022/04/14 09:56:40;;;;;;;34.60;22.40;;;17.70;99.90;;;;;;5027865;28;20586;-75
2022/04/14 09:59:27;;;;;;;28.20;22.30;;;17.80;99.90;;;;;;5021125;28;20436;-76
2022/04/14 10:02:16;;;;;;;39.63;22.63;;;17.90;99.90;;;;;;5030815;28;20503;-76
2022/04/14 10:05:02;;;;;;;34.50;22.00;;;17.90;99.90;;;;;;5029306;28;20526;-76
2022/04/14 10:07:59;;;;;;;25.80;20.33;;;17.90;99.90;;;;;;5030063;28;22744;-76
2022/04/14 10:10:46;;;;;;;25.37;19.97;;;18.00;99.90;;;;;;5031933;28;20808;-76
2022/04/14 10:13:35;;;;;;;31.37;20.87;;;18.10;99.90;;;;;;5028718;28;20843;-76
2022/04/14 10:16:25;;;;;;;26.90;21.23;;;18.20;99.90;;;;;;5028116;28;20427;-76
2022/04/14 10:19:12;;;;;;;28.50;19.73;;;18.20;99.90;;;;;;5021227;28;20439;-76
2022/04/14 10:21:58;;;;;;;25.90;20.30;;;18.30;99.90;;;;;;5026962;28;20654;-76
2022/04/14 10:24:45;;;;;;;25.37;19.40;;;18.40;99.90;;;;;;5021984;28;20877;-76
2022/04/14 10:27:31;;;;;;;28.10;19.70;;;18.60;99.90;;;;;;5024593;28;20436;-75
2022/04/14 10:30:19;;;;;;;30.63;19.77;;;18.80;99.90;;;;;;5028265;28;20485;-75
2022/04/14 10:33:06;;;;;;;25.63;18.90;;;18.90;99.90;;;;;;5026158;28;20462;-75
2022/04/14 10:35:53;;;;;;;26.23;17.00;;;19.10;99.90;;;;;;5024628;28;20443;-76
2022/04/14 10:38:41;;;;;;;22.70;17.40;;;19.10;99.90;;;;;;5030382;28;20451;-76
2022/04/14 10:41:29;;;;;;;24.77;19.23;;;19.30;99.30;;;;;;5023911;28;20457;-75
2022/04/14 10:44:20;;;;;;;23.97;18.87;;;19.30;96.40;;;;;;5017886;28;20479;-76
2022/04/14 10:47:06;;;;;;;29.53;18.40;;;19.40;95.70;;;;;;5017234;28;20792;-75
2022/04/14 10:49:52;;;;;;;21.93;17.13;;;19.50;96.60;;;;;;5023535;28;20760;-76
2022/04/14 10:52:38;;;;;;;22.53;17.23;;;19.70;95.80;;;;;;5016214;28;20457;-75
2022/04/14 10:55:38;;;;;;;26.73;18.87;;;19.80;95.00;;;;;;5025887;28;20416;-76
2022/04/14 10:58:54;;;;;;;19.80;15.53;;;20.00;93.70;;;;;;5019019;28;20554;-76
2022/04/14 11:02:09;;;;;;;23.70;18.37;;;20.00;91.80;;;;;;5016480;28;20436;-75
2022/04/14 11:04:56;;;;;;;20.40;16.10;;;20.00;91.30;;;;;;5024634;28;20460;-76
2022/04/14 11:07:43;;;;;;;23.80;17.63;;;20.00;90.70;;;;;;5019635;28;20763;-75
2022/04/14 11:10:29;;;;;;;24.10;16.70;;;20.00;90.70;;;;;;5028626;28;20962;-76
2022/04/14 11:13:16;;;;;;;22.50;16.33;;;20.00;91.60;;;;;;5024232;28;20482;-76
2022/04/14 11:16:46;;;;;;;21.63;16.93;;;20.00;91.30;;;;;;5021696;28;20566;-75
2022/04/14 11:19:32;;;;;;;25.10;16.80;;;20.00;91.80;;;;;;5030675;28;20502;-76
2022/04/14 11:22:18;;;;;;;28.33;18.37;;;20.20;91.30;;;;;;5026986;28;20534;-75
2022/04/14 11:25:05;;;;;;;24.37;18.33;;;20.10;89.30;;;;;;5024573;28;21082;-76
2022/04/14 11:28:19;;;;;;;30.63;17.43;;;19.90;89.50;;;;;;5027225;28;20463;-75
2022/04/14 11:31:21;;;;;;;21.50;17.00;;;19.80;90.40;;;;;;5026738;28;20464;-76
2022/04/14 11:34:09;;;;;;;25.03;15.80;;;19.80;90.70;;;;;;5029265;28;20474;-75
2022/04/14 11:36:54;;;;;;;19.80;14.13;;;19.90;90.20;;;;;;5023155;28;20472;-75
2022/04/14 11:39:42;;;;;;;22.83;15.83;;;19.90;88.90;;;;;;5040454;28;20507;-76
2022/04/14 11:42:30;;;;;;;25.23;14.20;;;20.00;88.40;;;;;;5034407;28;20448;-75
2022/04/14 11:45:22;;;;;;;18.77;14.37;;;20.00;88.70;;;;;;5038063;28;20426;-76
2022/04/14 11:48:10;;;;;;;16.27;13.50;;;20.10;88.20;;;;;;5027564;28;20945;-75
2022/04/14 11:50:56;;;;;;;21.53;14.10;;;20.10;87.60;;;;;;5035194;28;20539;-76
2022/04/14 11:53:42;;;;;;;20.33;13.27;;;20.00;85.90;;;;;;5033023;28;20532;-76
2022/04/14 11:56:28;;;;;;;20.50;14.60;;;19.90;86.70;;;;;;5034807;28;20455;-77
2022/04/14 11:59:19;;;;;;;21.67;14.63;;;19.80;86.30;;;;;;5032715;28;20495;-76
2022/04/14 12:02:07;;;;;;;18.37;13.60;;;19.70;86.20;;;;;;5032221;28;20427;-76
2022/04/14 12:04:55;;;;;;;22.13;12.80;;;19.70;87.10;;;;;;5035350;28;20831;-77
2022/04/14 12:07:41;;;;;;;16.83;12.03;;;19.80;88.10;;;;;;5032790;28;20456;-76
2022/04/14 12:10:27;;;;;;;16.67;12.60;;;19.90;88.40;;;;;;5033641;28;20817;-77
2022/04/14 12:13:13;;;;;;;19.30;13.00;;;20.10;86.70;;;;;;5034888;28;20475;-76
2022/04/14 12:16:05;;;;;;;18.40;13.07;;;20.30;85.00;;;;;;5031241;28;20422;-76
2022/04/14 12:18:55;;;;;;;18.47;13.40;;;20.60;84.50;;;;;;5031224;28;20497;-76
2022/04/14 12:21:40;;;;;;;21.50;13.07;;;20.70;81.50;;;;;;5037829;28;20802;-76
2022/04/14 12:24:26;;;;;;;19.70;12.27;;;20.90;79.00;;;;;;5035447;28;20438;-76
2022/04/14 12:27:16;;;;;;;23.73;13.57;;;21.00;81.30;;;;;;5027550;28;20440;-77
2022/04/14 12:30:06;;;;;;;17.00;12.00;;;21.10;77.10;;;;;;5029499;28;20464;-75
2022/04/14 12:33:01;;;;;;;15.87;12.50;;;21.10;78.00;;;;;;5040017;28;20448;-77
2022/04/14 12:35:47;;;;;;;15.87;11.77;;;21.10;76.90;;;;;;5024162;28;20948;-76
2022/04/14 12:38:43;;;;;;;26.10;12.17;;;21.10;75.50;;;;;;5034664;28;20419;-75
2022/04/14 12:41:36;;;;;;;18.20;11.37;;;21.00;74.10;;;;;;5023899;28;20491;-77
2022/04/14 12:44:22;;;;;;;20.30;11.87;;;21.10;75.00;;;;;;5024625;28;20566;-77
2022/04/14 12:47:07;;;;;;;20.13;12.90;;;21.20;75.60;;;;;;5029488;28;20814;-77
2022/04/14 12:49:54;;;;;;;12.60;11.17;;;21.20;76.50;;;;;;5039815;28;20488;-77
2022/04/14 12:52:40;;;;;;;16.33;10.57;;;21.20;75.60;;;;;;5037464;28;20440;-77
2022/04/14 12:55:28;;;;;;;20.33;10.40;;;21.20;74.30;;;;;;5021418;28;20447;-76
2022/04/14 12:58:15;;;;;;;13.13;7.97;;;21.10;72.50;;;;;;5027859;28;20528;-76
2022/04/14 13:01:08;;;;;;;12.00;8.23;;;21.10;72.20;;;;;;5026629;28;20419;-77
2022/04/14 13:03:54;;;;;;;10.57;6.67;;;21.10;72.90;;;;;;5028459;28;20580;-77
2022/04/14 13:06:41;;;;;;;14.57;8.70;;;21.20;72.70;;;;;;5030165;28;20798;-76
2022/04/14 13:09:26;;;;;;;11.77;8.63;;;21.20;70.80;;;;;;5030489;28;20443;-77
2022/04/14 13:12:12;;;;;;;17.77;7.00;;;21.30;69.50;;;;;;5025574;28;20436;-77
2022/04/14 13:14:58;;;;;;;9.40;6.17;;;21.30;69.10;;;;;;5040597;28;20487;-77
2022/04/14 13:17:45;;;;;;;8.50;4.90;;;21.40;66.50;;;;;;5027461;28;20472;-77
2022/04/14 13:20:36;;;;;;;6.93;4.97;;;21.40;66.60;;;;;;5030392;28;20840;-77
2022/04/14 13:23:23;;;;;;;9.03;5.77;;;21.30;66.00;;;;;;5022911;28;20592;-77
2022/04/14 13:26:08;;;;;;;8.83;4.53;;;21.30;66.00;;;;;;5032273;28;20449;-77
2022/04/14 13:28:54;;;;;;;5.13;3.60;;;21.30;66.00;;;;;;5028325;28;20841;-77
2022/04/14 13:31:40;;;;;;;8.03;4.17;;;21.20;66.20;;;;;;5047660;28;20448;-77
2022/04/14 13:34:26;;;;;;;9.63;4.20;;;21.20;65.40;;;;;;5036360;28;21075;-76
2022/04/14 13:37:12;;;;;;;14.67;4.90;;;21.30;66.00;;;;;;5026854;28;20514;-76
2022/04/14 13:40:01;;;;;;;9.97;4.60;;;21.30;65.30;;;;;;5038915;28;20829;-77
2022/04/14 13:42:47;;;;;;;10.03;4.43;;;21.20;64.60;;;;;;5043471;28;20474;-77
2022/04/14 13:45:32;;;;;;;9.67;4.13;;;21.10;65.00;;;;;;5032124;28;20479;-75
2022/04/14 13:48:18;;;;;;;9.40;4.27;;;21.10;65.80;;;;;;5026733;28;20416;-77
2022/04/14 13:51:04;;;;;;;7.30;4.30;;;21.20;65.60;;;;;;5042431;28;20455;-77
2022/04/14 13:53:50;;;;;;;7.87;3.30;;;21.00;65.80;;;;;;5029999;28;20472;-77
2022/04/14 13:56:37;;;;;;;11.90;3.87;;;21.00;66.50;;;;;;5029185;28;20510;-77
2022/04/14 13:59:23;;;;;;;9.17;4.13;;;21.00;67.40;;;;;;5031841;28;20448;-74
2022/04/14 14:02:09;;;;;;;6.57;3.97;;;20.90;65.70;;;;;;5037661;28;20437;-77
2022/04/14 14:04:55;;;;;;;10.80;5.90;;;20.70;64.40;;;;;;5024906;28;20518;-76
2022/04/14 14:07:41;;;;;;;9.67;4.03;;;20.50;65.30;;;;;;5030838;28;20977;-77
2022/04/14 14:10:26;;;;;;;6.30;3.87;;;20.40;66.90;;;;;;5027604;28;20471;-77
2022/04/14 14:13:13;;;;;;;9.67;4.37;;;20.30;66.90;;;;;;5030010;28;20554;-77
2022/04/14 14:15:59;;;;;;;6.93;4.23;;;20.20;69.10;;;;;;5025768;28;20426;-76
2022/04/14 14:18:45;;;;;;;5.70;3.60;;;20.20;67.30;;;;;;5034050;28;20476;-77